sensor_id;sensor_type;location;lat;lon;timestamp;P1;durP1;ratioP1;P2;durP2;ratioP2
54831;SDS011;40730;53.068;6.572;2022-07-18T00:01:30;5.05;;;3.60;;
54831;SDS011;40730;53.068;6.572;2022-07-18T00:03:56;4.88;;;3.50;;
54831;SDS011;40730;53.068;6.572;2022-07-18T00:06:22;4.82;;;3.40;;
54831;SDS011;40730;53.068;6.572;2022-07-18T00:08:47;5.82;;;2.95;;
54831;SDS011;40730;53.068;6.572;2022-07-18T00:11:13;2.58;;;2.38;;
54831;SDS011;40730;53.068;6.572;2022-07-18T00:13:38;5.43;;;3.08;;
54831;SDS011;40730;53.068;6.572;2022-07-18T00:16:04;3.92;;;2.47;;
54831;SDS011;40730;53.068;6.572;2022-07-18T00:18:30;3.45;;;2.92;;
54831;SDS011;40730;53.068;6.572;2022-07-18T00:20:55;4.70;;;3.88;;
54831;SDS011;40730;53.068;6.572;2022-07-18T00:23:21;5.18;;;3.92;;
54831;SDS011;40730;53.068;6.572;2022-07-18T00:25:47;7.55;;;4.20;;
54831;SDS011;40730;53.068;6.572;2022-07-18T00:28:12;7.57;;;5.28;;
54831;SDS011;40730;53.068;6.572;2022-07-18T00:30:38;6.35;;;4.38;;
54831;SDS011;40730;53.068;6.572;2022-07-18T00:33:04;4.80;;;4.07;;
54831;SDS011;40730;53.068;6.572;2022-07-18T00:35:30;6.40;;;4.32;;
54831;SDS011;40730;53.068;6.572;2022-07-18T00:37:56;6.28;;;4.53;;
54831;SDS011;40730;53.068;6.572;2022-07-18T00:40:21;11.02;;;4.05;;
54831;SDS011;40730;53.068;6.572;2022-07-18T00:42:47;3.88;;;3.47;;
54831;SDS011;40730;53.068;6.572;2022-07-18T00:45:12;5.55;;;3.47;;
54831;SDS011;40730;53.068;6.572;2022-07-18T00:47:38;5.63;;;4.30;;
54831;SDS011;40730;53.068;6.572;2022-07-18T00:50:04;7.10;;;4.20;;
54831;SDS011;40730;53.068;6.572;2022-07-18T00:52:32;6.38;;;3.70;;
54831;SDS011;40730;53.068;6.572;2022-07-18T00:54:58;5.57;;;4.03;;
54831;SDS011;40730;53.068;6.572;2022-07-18T00:57:25;7.53;;;4.78;;
54831;SDS011;40730;53.068;6.572;2022-07-18T00:59:51;5.47;;;4.15;;
54831;SDS011;40730;53.068;6.572;2022-07-18T01:02:37;7.03;;;3.92;;
54831;SDS011;40730;53.068;6.572;2022-07-18T01:05:03;5.88;;;3.92;;
54831;SDS011;40730;53.068;6.572;2022-07-18T01:07:29;6.03;;;3.92;;
54831;SDS011;40730;53.068;6.572;2022-07-18T01:09:54;6.55;;;4.75;;
54831;SDS011;40730;53.068;6.572;2022-07-18T01:12:20;11.60;;;4.95;;
54831;SDS011;40730;53.068;6.572;2022-07-18T01:14:46;6.03;;;4.60;;
54831;SDS011;40730;53.068;6.572;2022-07-18T01:17:13;5.70;;;4.40;;
54831;SDS011;40730;53.068;6.572;2022-07-18T01:19:40;6.80;;;4.85;;
54831;SDS011;40730;53.068;6.572;2022-07-18T01:22:06;8.07;;;5.30;;
54831;SDS011;40730;53.068;6.572;2022-07-18T01:24:31;6.40;;;4.72;;
54831;SDS011;40730;53.068;6.572;2022-07-18T01:26:57;6.28;;;4.78;;
54831;SDS011;40730;53.068;6.572;2022-07-18T01:29:22;6.97;;;5.07;;
54831;SDS011;40730;53.068;6.572;2022-07-18T01:31:48;7.65;;;5.20;;
54831;SDS011;40730;53.068;6.572;2022-07-18T01:34:13;7.30;;;5.80;;
54831;SDS011;40730;53.068;6.572;2022-07-18T01:36:39;7.40;;;5.00;;
54831;SDS011;40730;53.068;6.572;2022-07-18T01:39:04;6.70;;;5.35;;
54831;SDS011;40730;53.068;6.572;2022-07-18T01:41:30;8.57;;;5.13;;
54831;SDS011;40730;53.068;6.572;2022-07-18T01:43:55;8.82;;;5.88;;
54831;SDS011;40730;53.068;6.572;2022-07-18T01:46:21;5.88;;;4.80;;
54831;SDS011;40730;53.068;6.572;2022-07-18T01:48:47;6.75;;;5.38;;
54831;SDS011;40730;53.068;6.572;2022-07-18T01:51:12;9.38;;;5.65;;
54831;SDS011;40730;53.068;6.572;2022-07-18T01:53:38;8.50;;;5.55;;
54831;SDS011;40730;53.068;6.572;2022-07-18T01:56:05;9.43;;;5.05;;
54831;SDS011;40730;53.068;6.572;2022-07-18T01:58:31;7.80;;;4.80;;
54831;SDS011;40730;53.068;6.572;2022-07-18T02:00:57;4.88;;;3.85;;
54831;SDS011;40730;53.068;6.572;2022-07-18T02:03:23;6.60;;;4.90;;
54831;SDS011;40730;53.068;6.572;2022-07-18T02:05:48;7.53;;;4.55;;
54831;SDS011;40730;53.068;6.572;2022-07-18T02:08:14;8.13;;;4.70;;
54831;SDS011;40730;53.068;6.572;2022-07-18T02:10:39;5.18;;;4.03;;
54831;SDS011;40730;53.068;6.572;2022-07-18T02:13:05;10.15;;;5.45;;
54831;SDS011;40730;53.068;6.572;2022-07-18T02:15:31;6.47;;;4.93;;
54831;SDS011;40730;53.068;6.572;2022-07-18T02:17:56;8.35;;;5.03;;
54831;SDS011;40730;53.068;6.572;2022-07-18T02:20:22;7.22;;;4.85;;
54831;SDS011;40730;53.068;6.572;2022-07-18T02:22:48;6.75;;;5.07;;
54831;SDS011;40730;53.068;6.572;2022-07-18T02:25:14;6.85;;;5.07;;
54831;SDS011;40730;53.068;6.572;2022-07-18T02:27:39;7.10;;;5.03;;
54831;SDS011;40730;53.068;6.572;2022-07-18T02:30:05;7.63;;;5.28;;
54831;SDS011;40730;53.068;6.572;2022-07-18T02:32:32;8.85;;;5.60;;
54831;SDS011;40730;53.068;6.572;2022-07-18T02:35:00;7.90;;;6.13;;
54831;SDS011;40730;53.068;6.572;2022-07-18T02:37:25;7.03;;;5.35;;
54831;SDS011;40730;53.068;6.572;2022-07-18T02:39:51;6.72;;;5.60;;
54831;SDS011;40730;53.068;6.572;2022-07-18T02:42:17;7.43;;;5.45;;
54831;SDS011;40730;53.068;6.572;2022-07-18T02:44:42;8.88;;;5.60;;
54831;SDS011;40730;53.068;6.572;2022-07-18T02:47:08;7.35;;;6.10;;
54831;SDS011;40730;53.068;6.572;2022-07-18T02:49:33;8.35;;;5.15;;
54831;SDS011;40730;53.068;6.572;2022-07-18T02:52:00;9.73;;;5.95;;
54831;SDS011;40730;53.068;6.572;2022-07-18T02:54:30;8.75;;;5.22;;
54831;SDS011;40730;53.068;6.572;2022-07-18T02:56:57;7.38;;;5.65;;
54831;SDS011;40730;53.068;6.572;2022-07-18T02:59:22;8.82;;;4.95;;
54831;SDS011;40730;53.068;6.572;2022-07-18T03:01:50;8.02;;;4.78;;
54831;SDS011;40730;53.068;6.572;2022-07-18T03:04:16;7.35;;;5.80;;
54831;SDS011;40730;53.068;6.572;2022-07-18T03:06:43;7.25;;;4.95;;
54831;SDS011;40730;53.068;6.572;2022-07-18T03:09:09;10.60;;;5.53;;
54831;SDS011;40730;53.068;6.572;2022-07-18T03:11:34;6.35;;;4.85;;
54831;SDS011;40730;53.068;6.572;2022-07-18T03:14:00;9.00;;;5.38;;
54831;SDS011;40730;53.068;6.572;2022-07-18T03:16:26;8.05;;;5.50;;
54831;SDS011;40730;53.068;6.572;2022-07-18T03:18:51;7.70;;;5.22;;
54831;SDS011;40730;53.068;6.572;2022-07-18T03:21:17;9.20;;;5.20;;
54831;SDS011;40730;53.068;6.572;2022-07-18T03:23:42;8.13;;;4.90;;
54831;SDS011;40730;53.068;6.572;2022-07-18T03:26:08;6.82;;;4.30;;
54831;SDS011;40730;53.068;6.572;2022-07-18T03:28:33;6.95;;;4.90;;
54831;SDS011;40730;53.068;6.572;2022-07-18T03:30:59;6.72;;;4.70;;
54831;SDS011;40730;53.068;6.572;2022-07-18T03:33:25;9.15;;;5.05;;
54831;SDS011;40730;53.068;6.572;2022-07-18T03:35:51;7.28;;;5.00;;
54831;SDS011;40730;53.068;6.572;2022-07-18T03:38:17;9.68;;;5.40;;
54831;SDS011;40730;53.068;6.572;2022-07-18T03:40:43;7.90;;;4.97;;
54831;SDS011;40730;53.068;6.572;2022-07-18T03:43:08;7.88;;;4.88;;
54831;SDS011;40730;53.068;6.572;2022-07-18T03:45:34;6.72;;;5.38;;
54831;SDS011;40730;53.068;6.572;2022-07-18T03:47:59;11.13;;;5.80;;
54831;SDS011;40730;53.068;6.572;2022-07-18T03:50:25;9.00;;;4.85;;
54831;SDS011;40730;53.068;6.572;2022-07-18T03:52:52;7.35;;;5.10;;
54831;SDS011;40730;53.068;6.572;2022-07-18T03:55:18;8.82;;;4.70;;
54831;SDS011;40730;53.068;6.572;2022-07-18T03:57:44;8.93;;;5.22;;
54831;SDS011;40730;53.068;6.572;2022-07-18T04:00:10;7.45;;;5.25;;
54831;SDS011;40730;53.068;6.572;2022-07-18T04:02:40;8.35;;;4.65;;
54831;SDS011;40730;53.068;6.572;2022-07-18T04:05:07;9.80;;;5.53;;
54831;SDS011;40730;53.068;6.572;2022-07-18T04:07:33;10.27;;;5.60;;
54831;SDS011;40730;53.068;6.572;2022-07-18T04:09:59;8.43;;;4.72;;
54831;SDS011;40730;53.068;6.572;2022-07-18T04:12:25;9.45;;;5.25;;
54831;SDS011;40730;53.068;6.572;2022-07-18T04:14:51;8.57;;;5.10;;
54831;SDS011;40730;53.068;6.572;2022-07-18T04:17:16;10.18;;;5.15;;
54831;SDS011;40730;53.068;6.572;2022-07-18T04:19:42;7.80;;;4.90;;
54831;SDS011;40730;53.068;6.572;2022-07-18T04:22:07;8.68;;;5.80;;
54831;SDS011;40730;53.068;6.572;2022-07-18T04:24:33;10.40;;;5.45;;
54831;SDS011;40730;53.068;6.572;2022-07-18T04:26:58;7.45;;;5.65;;
54831;SDS011;40730;53.068;6.572;2022-07-18T04:29:24;8.32;;;5.13;;
54831;SDS011;40730;53.068;6.572;2022-07-18T04:31:50;10.63;;;5.32;;
54831;SDS011;40730;53.068;6.572;2022-07-18T04:34:15;10.07;;;5.25;;
54831;SDS011;40730;53.068;6.572;2022-07-18T04:36:41;8.35;;;4.22;;
54831;SDS011;40730;53.068;6.572;2022-07-18T04:39:06;7.43;;;5.25;;
54831;SDS011;40730;53.068;6.572;2022-07-18T04:41:32;8.98;;;5.10;;
54831;SDS011;40730;53.068;6.572;2022-07-18T04:43:58;8.07;;;5.18;;
54831;SDS011;40730;53.068;6.572;2022-07-18T04:46:23;8.02;;;5.15;;
54831;SDS011;40730;53.068;6.572;2022-07-18T04:48:49;10.93;;;4.78;;
54831;SDS011;40730;53.068;6.572;2022-07-18T04:51:14;7.03;;;4.50;;
54831;SDS011;40730;53.068;6.572;2022-07-18T04:53:40;5.82;;;4.30;;
54831;SDS011;40730;53.068;6.572;2022-07-18T04:56:06;7.22;;;4.65;;
54831;SDS011;40730;53.068;6.572;2022-07-18T04:58:31;8.35;;;4.72;;
54831;SDS011;40730;53.068;6.572;2022-07-18T05:00:57;4.90;;;3.95;;
54831;SDS011;40730;53.068;6.572;2022-07-18T05:03:22;8.15;;;3.92;;
54831;SDS011;40730;53.068;6.572;2022-07-18T05:05:48;8.40;;;3.95;;
54831;SDS011;40730;53.068;6.572;2022-07-18T05:08:14;7.65;;;4.03;;
54831;SDS011;40730;53.068;6.572;2022-07-18T05:10:40;6.25;;;4.20;;
54831;SDS011;40730;53.068;6.572;2022-07-18T05:13:05;5.95;;;3.75;;
54831;SDS011;40730;53.068;6.572;2022-07-18T05:15:31;8.20;;;3.50;;
54831;SDS011;40730;53.068;6.572;2022-07-18T05:17:56;8.85;;;3.30;;
54831;SDS011;40730;53.068;6.572;2022-07-18T05:20:23;5.68;;;3.75;;
54831;SDS011;40730;53.068;6.572;2022-07-18T05:22:50;6.15;;;3.20;;
54831;SDS011;40730;53.068;6.572;2022-07-18T05:25:17;7.10;;;3.05;;
54831;SDS011;40730;53.068;6.572;2022-07-18T05:27:43;6.88;;;3.42;;
54831;SDS011;40730;53.068;6.572;2022-07-18T05:30:10;5.85;;;2.58;;
54831;SDS011;40730;53.068;6.572;2022-07-18T05:32:38;5.00;;;2.67;;
54831;SDS011;40730;53.068;6.572;2022-07-18T05:35:07;5.53;;;2.47;;
54831;SDS011;40730;53.068;6.572;2022-07-18T05:37:34;5.57;;;2.47;;
54831;SDS011;40730;53.068;6.572;2022-07-18T05:40:03;5.30;;;2.53;;
54831;SDS011;40730;53.068;6.572;2022-07-18T05:42:30;3.97;;;2.63;;
54831;SDS011;40730;53.068;6.572;2022-07-18T05:44:56;3.58;;;1.95;;
54831;SDS011;40730;53.068;6.572;2022-07-18T05:47:21;3.40;;;1.98;;
54831;SDS011;40730;53.068;6.572;2022-07-18T05:49:47;6.30;;;2.42;;
54831;SDS011;40730;53.068;6.572;2022-07-18T05:52:13;3.72;;;1.60;;
54831;SDS011;40730;53.068;6.572;2022-07-18T05:54:38;5.82;;;1.80;;
54831;SDS011;40730;53.068;6.572;2022-07-18T05:57:05;4.68;;;1.65;;
54831;SDS011;40730;53.068;6.572;2022-07-18T05:59:30;10.13;;;1.77;;
54831;SDS011;40730;53.068;6.572;2022-07-18T06:01:56;7.15;;;1.55;;
54831;SDS011;40730;53.068;6.572;2022-07-18T06:04:22;3.95;;;1.80;;
54831;SDS011;40730;53.068;6.572;2022-07-18T06:06:47;6.03;;;1.67;;
54831;SDS011;40730;53.068;6.572;2022-07-18T06:09:15;4.03;;;1.48;;
54831;SDS011;40730;53.068;6.572;2022-07-18T06:11:41;4.50;;;1.45;;
54831;SDS011;40730;53.068;6.572;2022-07-18T06:14:07;3.35;;;1.27;;
54831;SDS011;40730;53.068;6.572;2022-07-18T06:16:32;4.13;;;1.63;;
54831;SDS011;40730;53.068;6.572;2022-07-18T06:18:58;4.65;;;1.73;;
54831;SDS011;40730;53.068;6.572;2022-07-18T06:21:24;5.32;;;1.23;;
54831;SDS011;40730;53.068;6.572;2022-07-18T06:23:50;7.47;;;1.42;;
54831;SDS011;40730;53.068;6.572;2022-07-18T06:26:16;5.15;;;1.58;;
54831;SDS011;40730;53.068;6.572;2022-07-18T06:28:41;3.60;;;1.35;;
54831;SDS011;40730;53.068;6.572;2022-07-18T06:31:07;6.00;;;1.10;;
54831;SDS011;40730;53.068;6.572;2022-07-18T06:33:33;7.10;;;1.10;;
54831;SDS011;40730;53.068;6.572;2022-07-18T06:35:58;5.25;;;1.02;;
54831;SDS011;40730;53.068;6.572;2022-07-18T06:38:24;6.10;;;0.98;;
54831;SDS011;40730;53.068;6.572;2022-07-18T06:40:49;6.38;;;1.10;;
54831;SDS011;40730;53.068;6.572;2022-07-18T06:43:15;4.75;;;1.00;;
54831;SDS011;40730;53.068;6.572;2022-07-18T06:45:47;6.40;;;1.10;;
54831;SDS011;40730;53.068;6.572;2022-07-18T06:48:13;4.75;;;1.45;;
54831;SDS011;40730;53.068;6.572;2022-07-18T06:50:40;7.90;;;1.10;;
54831;SDS011;40730;53.068;6.572;2022-07-18T06:53:06;4.30;;;0.98;;
54831;SDS011;40730;53.068;6.572;2022-07-18T06:55:32;9.40;;;0.77;;
54831;SDS011;40730;53.068;6.572;2022-07-18T06:57:57;7.00;;;1.40;;
54831;SDS011;40730;53.068;6.572;2022-07-18T07:00:23;5.82;;;1.25;;
54831;SDS011;40730;53.068;6.572;2022-07-18T07:02:49;7.15;;;0.90;;
54831;SDS011;40730;53.068;6.572;2022-07-18T07:05:18;4.38;;;1.08;;
54831;SDS011;40730;53.068;6.572;2022-07-18T07:07:45;3.25;;;0.98;;
54831;SDS011;40730;53.068;6.572;2022-07-18T07:10:11;2.92;;;0.82;;
54831;SDS011;40730;53.068;6.572;2022-07-18T07:15:06;2.70;;;0.63;;
54831;SDS011;40730;53.068;6.572;2022-07-18T07:17:33;3.10;;;0.98;;
54831;SDS011;40730;53.068;6.572;2022-07-18T07:19:59;5.03;;;0.70;;
54831;SDS011;40730;53.068;6.572;2022-07-18T07:22:24;4.18;;;0.70;;
54831;SDS011;40730;53.068;6.572;2022-07-18T07:24:50;6.57;;;0.68;;
54831;SDS011;40730;53.068;6.572;2022-07-18T07:27:16;5.47;;;0.77;;
54831;SDS011;40730;53.068;6.572;2022-07-18T07:29:41;5.15;;;0.52;;
54831;SDS011;40730;53.068;6.572;2022-07-18T07:32:07;3.75;;;0.60;;
54831;SDS011;40730;53.068;6.572;2022-07-18T07:34:32;3.70;;;0.65;;
54831;SDS011;40730;53.068;6.572;2022-07-18T07:36:58;5.32;;;0.50;;
54831;SDS011;40730;53.068;6.572;2022-07-18T07:39:24;1.75;;;0.57;;
54831;SDS011;40730;53.068;6.572;2022-07-18T07:41:50;5.07;;;1.27;;
54831;SDS011;40730;53.068;6.572;2022-07-18T07:44:16;2.53;;;0.47;;
54831;SDS011;40730;53.068;6.572;2022-07-18T07:46:41;3.63;;;0.52;;
54831;SDS011;40730;53.068;6.572;2022-07-18T07:49:07;2.05;;;0.60;;
54831;SDS011;40730;53.068;6.572;2022-07-18T07:51:32;2.25;;;0.60;;
54831;SDS011;40730;53.068;6.572;2022-07-18T07:53:58;1.83;;;0.40;;
54831;SDS011;40730;53.068;6.572;2022-07-18T07:56:23;2.47;;;0.63;;
54831;SDS011;40730;53.068;6.572;2022-07-18T07:58:49;2.22;;;0.47;;
54831;SDS011;40730;53.068;6.572;2022-07-18T08:01:14;2.58;;;0.40;;
54831;SDS011;40730;53.068;6.572;2022-07-18T08:03:42;4.45;;;0.55;;
54831;SDS011;40730;53.068;6.572;2022-07-18T08:06:09;4.85;;;0.60;;
54831;SDS011;40730;53.068;6.572;2022-07-18T08:08:35;3.30;;;0.60;;
54831;SDS011;40730;53.068;6.572;2022-07-18T08:11:01;3.03;;;0.52;;
54831;SDS011;40730;53.068;6.572;2022-07-18T08:13:27;2.35;;;0.63;;
54831;SDS011;40730;53.068;6.572;2022-07-18T08:15:52;4.13;;;0.63;;
54831;SDS011;40730;53.068;6.572;2022-07-18T08:18:18;4.38;;;0.50;;
54831;SDS011;40730;53.068;6.572;2022-07-18T08:20:43;1.75;;;0.40;;
54831;SDS011;40730;53.068;6.572;2022-07-18T08:23:09;2.80;;;0.63;;
54831;SDS011;40730;53.068;6.572;2022-07-18T08:25:37;6.93;;;0.88;;
54831;SDS011;40730;53.068;6.572;2022-07-18T08:28:04;2.03;;;0.63;;
54831;SDS011;40730;53.068;6.572;2022-07-18T08:30:31;3.80;;;0.63;;
54831;SDS011;40730;53.068;6.572;2022-07-18T08:32:57;4.43;;;0.50;;
54831;SDS011;40730;53.068;6.572;2022-07-18T08:35:23;5.47;;;0.55;;
54831;SDS011;40730;53.068;6.572;2022-07-18T08:37:49;6.68;;;0.60;;
54831;SDS011;40730;53.068;6.572;2022-07-18T08:40:15;3.63;;;0.60;;
54831;SDS011;40730;53.068;6.572;2022-07-18T08:42:41;1.50;;;0.40;;
54831;SDS011;40730;53.068;6.572;2022-07-18T08:45:07;3.88;;;0.45;;
54831;SDS011;40730;53.068;6.572;2022-07-18T08:47:34;4.47;;;0.60;;
54831;SDS011;40730;53.068;6.572;2022-07-18T08:49:59;2.28;;;0.43;;
54831;SDS011;40730;53.068;6.572;2022-07-18T08:52:27;4.55;;;0.40;;
54831;SDS011;40730;53.068;6.572;2022-07-18T08:54:53;3.60;;;0.50;;
54831;SDS011;40730;53.068;6.572;2022-07-18T08:57:20;6.30;;;0.65;;
54831;SDS011;40730;53.068;6.572;2022-07-18T08:59:47;4.25;;;0.30;;
54831;SDS011;40730;53.068;6.572;2022-07-18T09:02:13;4.32;;;0.52;;
54831;SDS011;40730;53.068;6.572;2022-07-18T09:04:40;1.88;;;0.30;;
54831;SDS011;40730;53.068;6.572;2022-07-18T09:07:07;1.73;;;0.40;;
54831;SDS011;40730;53.068;6.572;2022-07-18T09:09:33;4.80;;;0.30;;
54831;SDS011;40730;53.068;6.572;2022-07-18T09:12:04;4.45;;;0.30;;
54831;SDS011;40730;53.068;6.572;2022-07-18T09:14:35;3.30;;;0.40;;
54831;SDS011;40730;53.068;6.572;2022-07-18T09:19:38;5.90;;;0.40;;
54831;SDS011;40730;53.068;6.572;2022-07-18T09:22:10;3.28;;;0.40;;
54831;SDS011;40730;53.068;6.572;2022-07-18T09:30:07;2.58;;;0.50;;
54831;SDS011;40730;53.068;6.572;2022-07-18T09:32:43;3.17;;;0.30;;
54831;SDS011;40730;53.068;6.572;2022-07-18T09:35:12;2.08;;;0.77;;
54831;SDS011;40730;53.068;6.572;2022-07-18T09:37:39;5.70;;;0.30;;
54831;SDS011;40730;53.068;6.572;2022-07-18T09:42:43;2.35;;;0.40;;
54831;SDS011;40730;53.068;6.572;2022-07-18T09:45:09;4.03;;;0.40;;
54831;SDS011;40730;53.068;6.572;2022-07-18T09:47:51;3.67;;;0.40;;
54831;SDS011;40730;53.068;6.572;2022-07-18T09:50:28;2.25;;;0.30;;
54831;SDS011;40730;53.068;6.572;2022-07-18T09:52:59;2.95;;;0.30;;
54831;SDS011;40730;53.068;6.572;2022-07-18T09:55:51;2.72;;;0.40;;
54831;SDS011;40730;53.068;6.572;2022-07-18T09:58:19;4.97;;;0.40;;
54831;SDS011;40730;53.068;6.572;2022-07-18T10:00:49;4.82;;;0.30;;
54831;SDS011;40730;53.068;6.572;2022-07-18T10:03:16;2.33;;;0.45;;
54831;SDS011;40730;53.068;6.572;2022-07-18T10:05:43;4.47;;;0.90;;
54831;SDS011;40730;53.068;6.572;2022-07-18T10:08:11;3.95;;;0.40;;
54831;SDS011;40730;53.068;6.572;2022-07-18T10:10:39;5.75;;;0.60;;
54831;SDS011;40730;53.068;6.572;2022-07-18T10:13:06;4.60;;;0.80;;
54831;SDS011;40730;53.068;6.572;2022-07-18T10:15:34;2.25;;;0.50;;
54831;SDS011;40730;53.068;6.572;2022-07-18T10:18:01;3.85;;;0.45;;
54831;SDS011;40730;53.068;6.572;2022-07-18T10:20:30;2.95;;;0.60;;
54831;SDS011;40730;53.068;6.572;2022-07-18T10:31:34;3.70;;;0.57;;
54831;SDS011;40730;53.068;6.572;2022-07-18T10:44:35;1.20;;;0.60;;
54831;SDS011;40730;53.068;6.572;2022-07-18T10:55:25;4.10;;;0.85;;
54831;SDS011;40730;53.068;6.572;2022-07-18T11:00:27;5.32;;;0.82;;
54831;SDS011;40730;53.068;6.572;2022-07-18T11:13:22;3.55;;;1.13;;
54831;SDS011;40730;53.068;6.572;2022-07-18T11:15:55;3.90;;;1.17;;
54831;SDS011;40730;53.068;6.572;2022-07-18T11:18:30;3.58;;;1.17;;
54831;SDS011;40730;53.068;6.572;2022-07-18T11:20:56;3.78;;;0.90;;
54831;SDS011;40730;53.068;6.572;2022-07-18T11:23:23;4.43;;;0.93;;
54831;SDS011;40730;53.068;6.572;2022-07-18T11:25:51;7.00;;;1.25;;
54831;SDS011;40730;53.068;6.572;2022-07-18T11:28:21;2.15;;;1.20;;
54831;SDS011;40730;53.068;6.572;2022-07-18T11:30:58;3.80;;;1.10;;
54831;SDS011;40730;53.068;6.572;2022-07-18T11:33:25;4.35;;;1.05;;
54831;SDS011;40730;53.068;6.572;2022-07-18T11:36:02;9.60;;;1.45;;
54831;SDS011;40730;53.068;6.572;2022-07-18T11:38:32;3.33;;;1.13;;
54831;SDS011;40730;53.068;6.572;2022-07-18T11:40:59;4.72;;;1.40;;
54831;SDS011;40730;53.068;6.572;2022-07-18T11:43:25;5.85;;;1.30;;
54831;SDS011;40730;53.068;6.572;2022-07-18T11:45:58;4.32;;;1.52;;
54831;SDS011;40730;53.068;6.572;2022-07-18T11:48:32;4.55;;;1.17;;
54831;SDS011;40730;53.068;6.572;2022-07-18T11:50:58;5.28;;;1.48;;
54831;SDS011;40730;53.068;6.572;2022-07-18T11:53:24;3.15;;;1.40;;
54831;SDS011;40730;53.068;6.572;2022-07-18T11:55:49;3.40;;;1.05;;
54831;SDS011;40730;53.068;6.572;2022-07-18T11:58:17;7.43;;;1.30;;
54831;SDS011;40730;53.068;6.572;2022-07-18T12:00:43;4.63;;;1.23;;
54831;SDS011;40730;53.068;6.572;2022-07-18T12:05:48;5.65;;;1.10;;
54831;SDS011;40730;53.068;6.572;2022-07-18T12:08:25;5.35;;;1.10;;
54831;SDS011;40730;53.068;6.572;2022-07-18T12:16:21;2.95;;;1.10;;
54831;SDS011;40730;53.068;6.572;2022-07-18T12:18:50;5.47;;;1.58;;
54831;SDS011;40730;53.068;6.572;2022-07-18T12:21:16;2.45;;;1.30;;
54831;SDS011;40730;53.068;6.572;2022-07-18T12:23:42;3.08;;;1.00;;
54831;SDS011;40730;53.068;6.572;2022-07-18T12:26:08;4.13;;;1.05;;
54831;SDS011;40730;53.068;6.572;2022-07-18T12:28:33;4.20;;;1.30;;
54831;SDS011;40730;53.068;6.572;2022-07-18T12:30:59;3.33;;;0.95;;
54831;SDS011;40730;53.068;6.572;2022-07-18T12:33:25;2.00;;;1.08;;
54831;SDS011;40730;53.068;6.572;2022-07-18T12:35:57;2.75;;;1.20;;
54831;SDS011;40730;53.068;6.572;2022-07-18T12:38:24;4.15;;;1.10;;
54831;SDS011;40730;53.068;6.572;2022-07-18T12:40:55;1.92;;;1.05;;
54831;SDS011;40730;53.068;6.572;2022-07-18T12:45:56;4.18;;;0.93;;
54831;SDS011;40730;53.068;6.572;2022-07-18T12:48:22;3.42;;;1.15;;
54831;SDS011;40730;53.068;6.572;2022-07-18T12:50:55;2.33;;;1.25;;
54831;SDS011;40730;53.068;6.572;2022-07-18T12:53:23;3.45;;;1.42;;
54831;SDS011;40730;53.068;6.572;2022-07-18T12:55:48;2.95;;;1.60;;
54831;SDS011;40730;53.068;6.572;2022-07-18T12:58:14;4.07;;;1.63;;
54831;SDS011;40730;53.068;6.572;2022-07-18T13:00:40;3.33;;;1.42;;
54831;SDS011;40730;53.068;6.572;2022-07-18T13:03:05;2.17;;;1.20;;
54831;SDS011;40730;53.068;6.572;2022-07-18T13:05:31;2.28;;;1.05;;
54831;SDS011;40730;53.068;6.572;2022-07-18T13:07:57;2.03;;;1.42;;
54831;SDS011;40730;53.068;6.572;2022-07-18T13:10:23;3.97;;;1.42;;
54831;SDS011;40730;53.068;6.572;2022-07-18T13:12:49;2.35;;;1.50;;
54831;SDS011;40730;53.068;6.572;2022-07-18T13:15:14;3.35;;;1.30;;
54831;SDS011;40730;53.068;6.572;2022-07-18T13:17:40;2.78;;;1.80;;
54831;SDS011;40730;53.068;6.572;2022-07-18T13:20:06;3.20;;;1.50;;
54831;SDS011;40730;53.068;6.572;2022-07-18T13:22:32;4.20;;;1.90;;
54831;SDS011;40730;53.068;6.572;2022-07-18T13:25:11;3.78;;;1.80;;
54831;SDS011;40730;53.068;6.572;2022-07-18T13:27:37;3.80;;;1.85;;
54831;SDS011;40730;53.068;6.572;2022-07-18T13:30:03;2.92;;;1.38;;
54831;SDS011;40730;53.068;6.572;2022-07-18T13:32:30;2.90;;;1.65;;
54831;SDS011;40730;53.068;6.572;2022-07-18T13:34:56;3.00;;;1.50;;
54831;SDS011;40730;53.068;6.572;2022-07-18T13:37:22;3.90;;;1.58;;
54831;SDS011;40730;53.068;6.572;2022-07-18T13:39:48;2.65;;;1.35;;
54831;SDS011;40730;53.068;6.572;2022-07-18T13:42:14;1.85;;;1.52;;
54831;SDS011;40730;53.068;6.572;2022-07-18T13:44:39;3.67;;;1.67;;
54831;SDS011;40730;53.068;6.572;2022-07-18T13:47:05;1.92;;;1.30;;
54831;SDS011;40730;53.068;6.572;2022-07-18T13:49:31;5.10;;;1.70;;
54831;SDS011;40730;53.068;6.572;2022-07-18T13:51:56;4.35;;;2.10;;
54831;SDS011;40730;53.068;6.572;2022-07-18T13:54:22;2.30;;;1.55;;
54831;SDS011;40730;53.068;6.572;2022-07-18T13:56:48;2.42;;;1.63;;
54831;SDS011;40730;53.068;6.572;2022-07-18T13:59:13;3.15;;;1.15;;
54831;SDS011;40730;53.068;6.572;2022-07-18T14:01:39;3.83;;;1.33;;
54831;SDS011;40730;53.068;6.572;2022-07-18T14:04:05;6.57;;;1.58;;
54831;SDS011;40730;53.068;6.572;2022-07-18T14:06:31;3.38;;;1.77;;
54831;SDS011;40730;53.068;6.572;2022-07-18T14:08:57;3.42;;;1.85;;
54831;SDS011;40730;53.068;6.572;2022-07-18T14:11:22;3.50;;;1.80;;
54831;SDS011;40730;53.068;6.572;2022-07-18T14:13:48;3.90;;;1.80;;
54831;SDS011;40730;53.068;6.572;2022-07-18T14:16:14;7.07;;;1.75;;
54831;SDS011;40730;53.068;6.572;2022-07-18T14:18:39;3.70;;;1.42;;
54831;SDS011;40730;53.068;6.572;2022-07-18T14:21:05;3.22;;;1.48;;
54831;SDS011;40730;53.068;6.572;2022-07-18T14:23:31;2.58;;;1.50;;
54831;SDS011;40730;53.068;6.572;2022-07-18T14:25:57;3.55;;;1.55;;
54831;SDS011;40730;53.068;6.572;2022-07-18T14:28:22;7.38;;;2.40;;
54831;SDS011;40730;53.068;6.572;2022-07-18T14:30:48;5.47;;;1.52;;
54831;SDS011;40730;53.068;6.572;2022-07-18T14:33:13;4.25;;;1.40;;
54831;SDS011;40730;53.068;6.572;2022-07-18T14:35:39;3.95;;;1.85;;
54831;SDS011;40730;53.068;6.572;2022-07-18T14:38:05;3.05;;;1.33;;
54831;SDS011;40730;53.068;6.572;2022-07-18T14:40:31;2.40;;;1.55;;
54831;SDS011;40730;53.068;6.572;2022-07-18T14:42:56;4.07;;;2.10;;
54831;SDS011;40730;53.068;6.572;2022-07-18T14:45:22;3.58;;;1.70;;
54831;SDS011;40730;53.068;6.572;2022-07-18T14:47:48;5.07;;;1.55;;
54831;SDS011;40730;53.068;6.572;2022-07-18T14:50:13;2.75;;;1.45;;
54831;SDS011;40730;53.068;6.572;2022-07-18T14:52:39;4.10;;;1.52;;
54831;SDS011;40730;53.068;6.572;2022-07-18T14:55:05;3.20;;;1.88;;
54831;SDS011;40730;53.068;6.572;2022-07-18T14:57:32;2.30;;;1.38;;
54831;SDS011;40730;53.068;6.572;2022-07-18T14:59:57;1.95;;;1.30;;
54831;SDS011;40730;53.068;6.572;2022-07-18T15:02:23;2.97;;;1.70;;
54831;SDS011;40730;53.068;6.572;2022-07-18T15:04:49;3.28;;;1.27;;
54831;SDS011;40730;53.068;6.572;2022-07-18T15:07:14;2.30;;;1.27;;
54831;SDS011;40730;53.068;6.572;2022-07-18T15:09:40;4.07;;;0.88;;
54831;SDS011;40730;53.068;6.572;2022-07-18T15:12:06;3.72;;;1.20;;
54831;SDS011;40730;53.068;6.572;2022-07-18T15:14:33;2.22;;;1.25;;
54831;SDS011;40730;53.068;6.572;2022-07-18T15:16:59;2.88;;;0.93;;
54831;SDS011;40730;53.068;6.572;2022-07-18T15:19:24;3.22;;;0.95;;
54831;SDS011;40730;53.068;6.572;2022-07-18T15:21:50;2.10;;;1.27;;
54831;SDS011;40730;53.068;6.572;2022-07-18T15:24:16;3.55;;;0.98;;
54831;SDS011;40730;53.068;6.572;2022-07-18T15:26:41;3.90;;;1.10;;
54831;SDS011;40730;53.068;6.572;2022-07-18T15:29:07;1.75;;;0.85;;
54831;SDS011;40730;53.068;6.572;2022-07-18T15:31:33;2.00;;;1.25;;
54831;SDS011;40730;53.068;6.572;2022-07-18T15:33:58;3.45;;;1.63;;
54831;SDS011;40730;53.068;6.572;2022-07-18T15:36:24;2.05;;;0.90;;
54831;SDS011;40730;53.068;6.572;2022-07-18T15:38:50;2.45;;;0.70;;
54831;SDS011;40730;53.068;6.572;2022-07-18T15:41:16;4.68;;;1.00;;
54831;SDS011;40730;53.068;6.572;2022-07-18T15:43:46;2.85;;;1.10;;
54831;SDS011;40730;53.068;6.572;2022-07-18T15:46:12;2.53;;;1.13;;
54831;SDS011;40730;53.068;6.572;2022-07-18T15:48:42;3.05;;;0.73;;